12:40
Airports
History
Links
Donate
Help keep this website running!
PayPal
Bitcoin
This page is community maintained. The information is intended for PC simulator navigation or reference.
Always use approved charts for navigation.
EFJY
Jyvaskyla
Jyvaskyla (EFJY)
Jyväskylä, Finland (41160)
(C)
Lat/Lng:62° 23' 58.03" N / 25° 40' 41.7" E
62.399452 / 25.67825
Elevation:459'ft / 140mMSL
ID / ICAO:EFJY
Runways:1
Longest:12-30
Asphalt 2,591m / 8,501ft
Controlled:Yes
METAR12:20 GMT 2018-01-20
Altimeter: 29.77
Visibility: 3.0 statute miles
Wind: 3 knots (from 350°)
Temp: -7°c / 19°f
Humidity: 92.5%

METAR: EFJY 201220Z AUTO 35003KT 4800 BR OVC004 M07/M08 Q1008

(Powered by phpweather)
Airport Radio Frequencies
ATIS: 134.15
Tower: 118, 119.7
Approach: 119.7, 127
Nearby VORs <50NM
Nearby NDBs
Runway 12 / 30
Dimensions:2591 x 60.1m 8501' x 197'ft
Surface:Asphalt
Edge Lights:High intensity
Runway 12 [A]Runway 30 [B]
Heading:133°TH 313°TH
Lat:
Lng:
62° 24' 27.18"N
25° 39' 36.5"E
62° 23' 28.87"N
25° 41' 46.9"E
ALS:CalvertMALS
User Notes and Comments
62° 23' 58.03" N / 25° 40' 41.7" E
Distance To
Airport ID:
Nearby Airports
4 Mantta Sassi 41.5 NM
EFMM SW 231°
(U) Pieksamaki 43.8 NM
EFPK ESE 103°
4 Haapamaki 44.1 NM
EFHI WSW 257°
(C) Halli 47.3 NM
EFHA SW 217°
4 Viitasaari 50.1 NM
EFVI N
(U) Kivijarvi 53.4 NM
EFKV NNW 339°
(U) Alavus 67.9 NM
EFAL W 279°
VFR Chart
Flight Planning at SkyVector.com